createdAt,value
2019-01-21T00:02:06.374Z,20.93
2019-01-21T00:04:40.821Z,23.23
2019-01-21T00:07:15.413Z,20.73
2019-01-21T00:09:50.037Z,21.57
2019-01-21T00:12:25.823Z,20.77
2019-01-21T00:14:59.817Z,23.00
2019-01-21T00:17:34.323Z,20.87
2019-01-21T00:20:09.817Z,22.33
2019-01-21T00:22:44.822Z,23.67
2019-01-21T00:25:20.036Z,22.10
2019-01-21T00:27:54.043Z,20.50
2019-01-21T00:30:29.282Z,20.93
2019-01-21T00:33:04.109Z,23.23
2019-01-21T00:35:39.818Z,24.53
2019-01-21T00:38:14.828Z,22.13
2019-01-21T00:40:48.829Z,22.83
2019-01-21T00:43:24.037Z,22.20
2019-01-21T00:45:59.278Z,22.77
2019-01-21T00:48:34.105Z,22.60
2019-01-21T00:51:09.140Z,23.60
2019-01-21T00:53:44.376Z,23.20
2019-01-21T00:56:19.849Z,21.87
2019-01-21T00:58:55.058Z,23.60
2019-01-21T01:01:30.298Z,21.83
2019-01-21T01:04:04.834Z,23.23
2019-01-21T01:06:39.833Z,23.23
2019-01-21T01:09:14.373Z,20.90
2019-01-21T01:11:50.430Z,22.50
2019-01-21T01:14:25.054Z,23.20
2019-01-21T01:17:01.317Z,22.73
2019-01-21T01:19:36.834Z,22.47
2019-01-21T01:22:11.853Z,21.70
2019-01-21T01:24:46.212Z,23.37
2019-01-21T01:27:21.248Z,23.30
2019-01-21T01:29:57.098Z,23.33
2019-01-21T01:32:32.134Z,22.50
2019-01-21T01:35:07.833Z,21.70
2019-01-21T01:37:41.834Z,23.23
2019-01-21T01:40:22.763Z,21.83
2019-01-21T01:42:56.772Z,21.37
2019-01-21T01:45:31.834Z,21.60
2019-01-21T01:48:07.043Z,21.07
2019-01-21T01:50:42.833Z,20.97
2019-01-21T01:53:17.836Z,23.70
2019-01-21T01:55:52.855Z,22.00
2019-01-21T01:58:26.835Z,22.80
2019-01-21T02:01:00.855Z,22.07
2019-01-21T02:03:35.842Z,22.63
2019-01-21T02:06:11.254Z,23.00
2019-01-21T02:08:46.836Z,24.60
2019-01-21T02:11:23.573Z,23.20
2019-01-21T02:13:58.403Z,21.00
2019-01-21T02:16:32.851Z,21.73
2019-01-21T02:19:06.861Z,23.00
2019-01-21T02:21:45.837Z,23.77
2019-01-21T02:24:23.248Z,24.33
2019-01-21T02:27:17.327Z,23.57
2019-01-21T02:30:39.260Z,22.77
2019-01-21T02:33:45.862Z,23.47
2019-01-21T02:36:42.844Z,24.63
2019-01-21T02:39:49.633Z,24.83
2019-01-21T02:42:38.722Z,26.30
2019-01-21T02:45:20.309Z,24.87
2019-01-21T02:48:26.068Z,25.90
2019-01-21T02:51:55.367Z,23.83
2019-01-21T02:54:57.230Z,25.17
2019-01-21T02:57:47.862Z,23.67
2019-01-21T03:00:46.855Z,25.00
2019-01-21T03:03:41.314Z,22.77
2019-01-21T03:07:12.256Z,24.07
2019-01-21T03:10:09.855Z,25.90
2019-01-21T03:13:30.318Z,26.27
2019-01-21T03:17:05.845Z,26.77
2019-01-21T03:20:05.375Z,26.87
2019-01-21T03:26:36.135Z,24.87
2019-01-21T03:29:35.335Z,26.47
2019-01-21T03:36:10.409Z,23.33
2019-01-21T03:42:48.320Z,24.57
2019-01-21T03:45:38.846Z,24.87
2019-01-21T03:48:30.336Z,24.60
2019-01-21T03:51:40.848Z,23.73
2019-01-21T03:54:29.351Z,24.57
2019-01-21T03:57:26.847Z,26.67
2019-01-21T04:00:37.381Z,26.07
2019-01-21T04:03:32.276Z,27.57
2019-01-21T04:06:37.857Z,27.03
2019-01-21T04:09:47.263Z,26.13
2019-01-21T04:12:58.340Z,26.33
2019-01-21T04:16:11.065Z,26.50
2019-01-21T04:19:29.848Z,26.53
2019-01-21T04:22:36.694Z,27.67
2019-01-21T04:26:14.192Z,26.43
2019-01-21T04:28:59.670Z,24.30
2019-01-21T04:31:58.256Z,26.70
2019-01-21T04:35:15.070Z,27.00
2019-01-21T04:38:29.864Z,25.33
2019-01-21T04:41:38.456Z,26.77
2019-01-21T04:44:46.254Z,26.53
2019-01-21T04:47:44.874Z,26.73
2019-01-21T04:50:43.872Z,25.63
2019-01-21T04:54:24.850Z,26.77
2019-01-21T04:57:45.856Z,25.20
2019-01-21T05:00:53.852Z,26.10
2019-01-21T05:04:07.266Z,26.67
2019-01-21T05:07:25.853Z,27.10
2019-01-21T05:10:12.865Z,27.00
2019-01-21T05:13:13.262Z,28.07
2019-01-21T05:16:28.880Z,26.33
2019-01-21T05:19:37.056Z,27.03
2019-01-21T05:22:52.879Z,28.33
2019-01-21T05:25:41.856Z,27.83
2019-01-21T05:28:47.766Z,27.53
2019-01-21T05:31:46.854Z,25.23
2019-01-21T05:34:59.080Z,27.60
2019-01-21T05:38:07.281Z,27.67
2019-01-21T05:41:14.474Z,26.37
2019-01-21T05:44:31.482Z,25.87
2019-01-21T05:47:47.855Z,26.30
2019-01-21T05:51:18.427Z,26.67
2019-01-21T05:54:37.281Z,26.20
2019-01-21T05:57:53.070Z,27.70
2019-01-21T06:01:24.866Z,26.23
2019-01-21T06:04:31.856Z,25.80
2019-01-21T06:07:44.532Z,28.90
2019-01-21T06:17:48.691Z,27.23
2019-01-21T06:24:13.305Z,29.77
2019-01-21T06:27:23.360Z,28.20
2019-01-21T06:30:55.530Z,28.13
2019-01-21T06:37:25.470Z,27.17
2019-01-21T06:44:47.229Z,26.57
2019-01-21T06:48:03.422Z,28.33
2019-01-21T06:51:11.224Z,28.13
2019-01-21T06:54:26.397Z,28.30
2019-01-21T06:57:52.837Z,26.93
2019-01-21T07:01:28.284Z,27.60
2019-01-21T07:04:48.875Z,27.80
2019-01-21T07:08:24.643Z,24.83
2019-01-21T07:11:41.457Z,27.80
2019-01-21T07:15:15.474Z,27.13
2019-01-21T07:18:21.432Z,27.50
2019-01-21T07:21:48.278Z,27.43
2019-01-21T07:25:17.585Z,26.97
2019-01-21T07:28:45.668Z,25.80
2019-01-21T07:31:58.584Z,26.67
2019-01-21T07:45:44.336Z,26.53
2019-01-21T07:49:02.583Z,26.53
2019-01-21T07:52:09.681Z,27.37
2019-01-21T08:02:25.602Z,27.17
2019-01-21T08:05:43.896Z,26.53
2019-01-21T08:08:36.497Z,28.03
2019-01-21T08:12:05.191Z,27.00
2019-01-21T08:15:20.589Z,28.30
2019-01-21T08:18:52.123Z,29.27
2019-01-21T08:22:13.440Z,28.07
2019-01-21T08:28:55.873Z,28.27
2019-01-21T08:32:18.885Z,28.67
2019-01-21T08:35:20.489Z,28.63
2019-01-21T08:44:58.888Z,29.50
2019-01-21T08:48:08.290Z,28.97
2019-01-21T08:51:20.596Z,30.57
2019-01-21T08:54:33.353Z,28.00
2019-01-21T08:57:53.408Z,26.47
2019-01-21T09:01:01.402Z,31.73
2019-01-21T09:04:05.643Z,29.00
2019-01-21T09:13:23.194Z,28.23
2019-01-21T09:20:12.174Z,29.27
2019-01-21T09:22:58.479Z,28.47
2019-01-21T09:26:16.020Z,28.57
2019-01-21T09:29:35.372Z,29.17
2019-01-21T09:36:20.470Z,29.43
2019-01-21T09:39:18.440Z,28.77
2019-01-21T09:42:15.594Z,29.70
2019-01-21T09:45:36.306Z,28.70
2019-01-21T09:51:41.908Z,26.50
2019-01-21T09:57:46.404Z,28.13
2019-01-21T10:03:52.588Z,26.57
2019-01-21T10:06:35.816Z,27.00
2019-01-21T10:09:25.911Z,29.33
2019-01-21T10:12:27.910Z,28.17
2019-01-21T10:15:44.266Z,27.60
2019-01-21T10:19:00.269Z,28.87
2019-01-21T10:22:01.305Z,26.17
2019-01-21T10:25:16.920Z,29.27
2019-01-21T10:28:26.123Z,28.90
2019-01-21T10:31:30.914Z,29.27
2019-01-21T10:34:55.913Z,27.37
2019-01-21T10:38:03.910Z,29.17
2019-01-21T10:41:00.403Z,29.60
2019-01-21T10:43:56.323Z,28.47
2019-01-21T10:51:10.296Z,28.50
2019-01-21T10:54:10.520Z,28.67
2019-01-21T10:57:05.418Z,29.57
2019-01-21T11:00:13.427Z,28.73
2019-01-21T11:06:53.399Z,30.63
2019-01-21T11:09:49.139Z,27.73
2019-01-21T11:12:51.927Z,29.20
2019-01-21T11:15:36.936Z,28.40
2019-01-21T11:22:23.600Z,29.33
2019-01-21T11:28:54.364Z,29.40
2019-01-21T11:31:55.199Z,30.17
2019-01-21T11:35:17.334Z,30.17
2019-01-21T11:38:00.155Z,33.73
2019-01-21T11:41:11.442Z,29.47
2019-01-21T11:44:15.350Z,29.90
2019-01-21T11:47:27.933Z,31.10
2019-01-21T11:50:35.932Z,31.07
2019-01-21T11:53:50.832Z,30.23
2019-01-21T11:56:48.931Z,31.03
2019-01-21T11:59:51.492Z,30.90
2019-01-21T12:02:51.506Z,36.23
2019-01-21T12:05:57.665Z,31.30
2019-01-21T12:09:06.941Z,30.97
2019-01-21T12:12:31.940Z,30.77
2019-01-21T12:15:30.696Z,30.00
2019-01-21T12:18:32.774Z,30.67
2019-01-21T12:21:47.528Z,30.60
2019-01-21T12:24:36.282Z,30.47
2019-01-21T12:27:45.959Z,30.80
2019-01-21T12:30:54.138Z,31.27
2019-01-21T12:34:05.943Z,31.13
2019-01-21T12:37:25.954Z,30.03
2019-01-21T12:40:14.946Z,28.63
2019-01-21T12:43:16.540Z,29.37
2019-01-21T12:46:29.464Z,30.80
2019-01-21T12:53:31.757Z,29.57
2019-01-21T12:56:41.608Z,29.27
2019-01-21T13:00:01.946Z,31.60
2019-01-21T13:06:20.375Z,30.60
2019-01-21T13:09:19.572Z,31.30
2019-01-21T13:16:30.470Z,31.53
2019-01-21T13:19:39.910Z,30.40
2019-01-21T13:22:39.932Z,31.60
2019-01-21T13:25:47.965Z,32.30
2019-01-21T13:28:42.426Z,31.13
2019-01-21T13:31:59.948Z,31.53
2019-01-21T13:34:58.642Z,32.50
2019-01-21T13:38:34.503Z,32.23
2019-01-21T13:41:18.546Z,30.80
2019-01-21T13:44:42.971Z,31.43
2019-01-21T13:48:00.568Z,31.63
2019-01-21T13:51:10.948Z,31.43
2019-01-21T13:54:16.172Z,31.17
2019-01-21T14:00:51.439Z,29.80
2019-01-21T14:03:38.351Z,30.47
2019-01-21T14:06:37.752Z,31.70
2019-01-21T14:09:45.348Z,31.97
2019-01-21T14:16:22.952Z,30.90
2019-01-21T14:19:13.953Z,32.43
2019-01-21T14:22:32.529Z,31.03
2019-01-21T14:32:45.959Z,30.00
2019-01-21T14:39:13.201Z,30.60
2019-01-21T14:45:52.747Z,31.40
2019-01-21T14:48:52.776Z,31.03
2019-01-21T14:55:34.794Z,33.00
2019-01-21T15:02:44.476Z,32.53
2019-01-21T15:06:30.559Z,31.70
2019-01-21T15:09:44.460Z,31.83
2019-01-21T15:12:49.440Z,30.50
2019-01-21T15:16:29.255Z,33.40
2019-01-21T15:19:38.995Z,32.00
2019-01-21T15:22:49.525Z,32.43
2019-01-21T15:26:03.332Z,31.90
2019-01-21T15:29:06.628Z,32.13
2019-01-21T15:32:27.475Z,31.70
2019-01-21T15:39:29.058Z,30.50
2019-01-21T15:42:46.309Z,31.73
2019-01-21T15:45:59.991Z,30.50
2019-01-21T15:52:39.659Z,29.87
2019-01-21T15:55:57.493Z,30.70
2019-01-21T15:58:54.442Z,31.53
2019-01-21T16:01:57.531Z,32.60
2019-01-21T16:05:14.992Z,31.27
2019-01-21T16:08:06.361Z,31.83
2019-01-21T16:14:38.830Z,29.53
2019-01-21T16:17:57.842Z,30.53
2019-01-21T16:21:24.584Z,30.63
2019-01-21T16:24:39.005Z,31.40
2019-01-21T16:27:45.515Z,29.73
2019-01-21T16:30:47.578Z,29.27
2019-01-21T16:33:54.769Z,30.83
2019-01-21T16:36:45.006Z,31.20
2019-01-21T16:42:20.426Z,29.83
2019-01-21T16:45:06.018Z,30.07
2019-01-21T16:47:43.592Z,30.90
2019-01-21T16:50:24.220Z,31.50
2019-01-21T16:53:00.213Z,30.83
2019-01-21T16:59:05.003Z,30.30
2019-01-21T17:01:44.500Z,30.60
2019-01-21T17:04:20.008Z,31.67
2019-01-21T17:10:26.330Z,30.60
2019-01-21T17:13:05.255Z,29.63
2019-01-21T17:15:42.543Z,31.13
2019-01-21T17:18:17.984Z,31.40
2019-01-21T17:20:57.548Z,31.13
2019-01-21T17:23:34.809Z,30.93
2019-01-21T17:26:09.229Z,30.73
2019-01-21T17:28:47.540Z,29.47
2019-01-21T17:31:23.602Z,29.97
2019-01-21T17:34:03.008Z,28.90
2019-01-21T17:36:38.006Z,29.93
2019-01-21T17:39:17.504Z,31.80
2019-01-21T17:41:52.538Z,30.13
2019-01-21T17:44:29.037Z,33.73
2019-01-21T17:47:07.010Z,29.70
2019-01-21T17:49:41.939Z,30.13
2019-01-21T17:52:23.529Z,29.33
2019-01-21T17:54:58.562Z,30.83
2019-01-21T17:57:33.010Z,30.03
2019-01-21T18:00:08.421Z,29.23
2019-01-21T18:06:13.015Z,30.10
2019-01-21T18:08:47.590Z,29.23
2019-01-21T18:11:25.501Z,29.10
2019-01-21T18:14:02.573Z,30.53
2019-01-21T18:16:46.833Z,32.77
2019-01-21T18:19:28.619Z,30.00
2019-01-21T18:22:08.566Z,30.97
2019-01-21T18:24:44.622Z,30.20
2019-01-21T18:27:24.570Z,28.93
2019-01-21T18:30:02.118Z,31.87
2019-01-21T18:32:47.757Z,29.40
2019-01-21T18:35:23.021Z,31.63
2019-01-21T18:37:58.838Z,30.70
2019-01-21T18:44:13.034Z,27.07
2019-01-21T18:50:19.014Z,29.93
2019-01-21T18:52:54.225Z,29.20
2019-01-21T18:55:31.505Z,28.57
2019-01-21T18:58:07.015Z,30.13
2019-01-21T19:00:41.016Z,30.77
2019-01-21T19:03:24.598Z,30.30
2019-01-21T19:06:02.704Z,29.60
2019-01-21T19:08:38.019Z,30.40
2019-01-21T19:11:13.585Z,29.73
2019-01-21T19:13:49.847Z,28.20
2019-01-21T19:16:27.543Z,29.87
2019-01-21T19:19:03.028Z,30.00
2019-01-21T19:21:38.635Z,30.60
2019-01-21T19:24:14.691Z,28.33
2019-01-21T19:26:49.521Z,31.03
2019-01-21T19:29:25.578Z,31.90
2019-01-21T19:32:02.662Z,31.93
2019-01-21T19:34:39.023Z,29.63
2019-01-21T19:37:13.750Z,29.57
2019-01-21T19:39:49.028Z,31.07
2019-01-21T19:42:24.055Z,31.13
2019-01-21T19:45:01.925Z,31.33
2019-01-21T19:47:38.595Z,31.13
2019-01-21T19:50:13.051Z,32.33
2019-01-21T19:52:50.027Z,33.40
2019-01-21T19:55:28.032Z,30.63
2019-01-21T19:58:05.487Z,30.20
2019-01-21T20:00:41.545Z,32.87
2019-01-21T20:03:17.035Z,31.13
2019-01-21T20:05:51.031Z,32.73
2019-01-21T20:08:26.647Z,32.53
2019-01-21T20:11:03.942Z,33.60
2019-01-21T20:13:42.857Z,31.30
2019-01-21T20:16:18.505Z,34.73
2019-01-21T20:18:53.540Z,32.47
2019-01-21T20:21:32.269Z,34.77
2019-01-21T20:24:10.066Z,31.67
2019-01-21T20:26:45.715Z,30.47
2019-01-21T20:29:28.940Z,33.47
2019-01-21T20:32:06.023Z,33.53
2019-01-21T20:34:41.875Z,32.90
2019-01-21T20:37:17.526Z,33.90
2019-01-21T20:39:52.714Z,36.43
2019-01-21T20:42:29.228Z,34.70
2019-01-21T20:45:03.038Z,35.00
2019-01-21T20:47:39.499Z,34.93
2019-01-21T20:50:20.972Z,35.70
2019-01-21T20:52:57.104Z,34.30
2019-01-21T20:55:34.487Z,34.47
2019-01-21T20:58:10.489Z,33.47
2019-01-21T21:00:46.183Z,33.97
2019-01-21T21:03:22.808Z,33.83
2019-01-21T21:05:58.661Z,35.10
2019-01-21T21:08:34.719Z,33.77
2019-01-21T21:11:12.004Z,34.50
2019-01-21T21:13:50.725Z,33.20
2019-01-21T21:16:26.223Z,34.37
2019-01-21T21:19:01.610Z,34.17
2019-01-21T21:21:38.186Z,34.00
2019-01-21T21:24:13.187Z,33.83
2019-01-21T21:26:48.760Z,36.20
2019-01-21T21:29:29.474Z,33.10
2019-01-21T21:32:11.117Z,35.90
2019-01-21T21:34:47.580Z,34.53
2019-01-21T21:37:25.687Z,35.60
2019-01-21T21:40:01.744Z,33.80
2019-01-21T21:42:38.417Z,34.50
2019-01-21T21:45:15.702Z,34.43
2019-01-21T21:48:09.227Z,34.80
2019-01-21T21:50:44.814Z,34.93
2019-01-21T21:53:21.897Z,34.87
2019-01-21T21:55:58.775Z,36.87
2019-01-21T22:02:16.631Z,33.70
2019-01-21T22:04:52.205Z,33.30
2019-01-21T22:07:27.925Z,33.83
2019-01-21T22:10:04.234Z,35.33
2019-01-21T22:15:58.082Z,33.03
2019-01-21T22:18:32.705Z,34.47
2019-01-21T22:24:50.772Z,34.27
2019-01-21T22:27:25.801Z,32.13
2019-01-21T22:30:04.724Z,33.70
2019-01-21T22:32:40.782Z,33.63
2019-01-21T22:35:15.611Z,34.17
2019-01-21T22:37:52.899Z,33.90
2019-01-21T22:40:29.215Z,32.27
2019-01-21T22:43:05.831Z,32.87
2019-01-21T22:45:42.206Z,30.27
2019-01-21T22:48:17.947Z,31.27
2019-01-21T22:50:53.239Z,32.40
2019-01-21T22:53:31.700Z,31.90
2019-01-21T22:56:07.758Z,33.10
2019-01-21T22:58:43.252Z,32.50
2019-01-21T23:01:29.906Z,31.47
2019-01-21T23:04:06.169Z,30.07
2019-01-21T23:06:40.233Z,31.23
2019-01-21T23:09:15.264Z,28.73
2019-01-21T23:11:50.660Z,28.77
2019-01-21T23:14:26.229Z,28.50
2019-01-21T23:17:02.773Z,29.57
2019-01-21T23:19:38.829Z,27.57
2019-01-21T23:22:13.658Z,27.73
2019-01-21T23:24:49.236Z,29.73
2019-01-21T23:27:26.181Z,29.30
2019-01-21T23:30:04.904Z,29.97
2019-01-21T23:35:46.712Z,27.27
2019-01-21T23:38:22.770Z,27.17
2019-01-21T23:40:58.262Z,28.33
2019-01-21T23:43:33.657Z,28.53
2019-01-21T23:46:12.787Z,27.53
2019-01-21T23:48:47.820Z,28.50
2019-01-21T23:51:24.695Z,27.67
2019-01-21T23:53:59.731Z,27.30
2019-01-21T23:56:35.993Z,28.97
2019-01-21T23:59:10.258Z,28.60
